Bad Axe, MI

4:48 PM EDT on August 21, 2017 (GMT -0400)
Huron County Memorial

Weather History for KBAX - November, 2013

Change the Weather History Date:

Friday, November 15, 2013

  Actual Average (KP58) Record (KP58)
Temperature  
Mean Temperature 42 °F -  
Max Temperature 50 °F 44 °F 62 °F (2001)
Min Temperature 35 °F 34 °F 26 °F (1996)
Degree Days  
Heating Degree Days 22    
Moisture  
Dew Point 29 °F    
Average Humidity 57    
Maximum Humidity 76    
Minimum Humidity 43    
Precipitation  
Precipitation 0.00 in - - ()
Sea Level Pressure  
Sea Level Pressure 29.97 in    
Wind  
Wind Speed 10 mph (SW)    
Max Wind Speed 15 mph    
Max Gust Speed 22 mph    
Visibility 10 miles    
Events Rain    
Averages and records for this station are not official NWS values.
T = Trace of Precipitation, MM = Missing Value Source: NWS Daily Summary

Daily Weather History Graph

Daily Weather History Graph

Search for Another Location

Airport or City:

Trip Planner

Search our weather history database for the weather conditions in past years. The results will help you decide how hot, cold, wet, or windy it might be!

Date:

Astronomy

Nov. 15, 2013 Rise Set
Actual Time 7:26 AM EST 5:06 PM EST
Civil Twilight 6:55 AM EST 5:37 PM EST
Nautical Twilight 6:20 AM EST 6:11 PM EST
Astronomical Twilight 5:46 AM EST 6:45 PM EST
Moon 4:05 PM EST (11/15) 5:18 AM EST (11/15)
Length of Visible Light 10h 41m
Length of Day
9h 39m
Waxing Gibbous, 96% of the Moon is Illuminated
Nov 15
Waxing Gibbous
Nov 17
Full
Nov 25
Last Quarter
Dec 2
New
Dec 9
First Quarter

Hourly Weather History & Observations

Time (EST) Temp. Windchill Dew Point Humidity Pressure Visibility Wind Dir Wind Speed Gust Speed Precip Events Conditions
12:14 AM 41.7 °F 35.2 °F 23.0 °F 47% 29.94 in 10.0 mi SW 11.5 mph 17.3 mph N/A   Clear
12:34 AM 42.4 °F 36.5 °F 22.8 °F 46% 29.94 in 10.0 mi SW 10.4 mph 16.1 mph N/A   Scattered Clouds
12:54 AM 42.8 °F 36.6 °F 23.0 °F 46% 29.94 in 10.0 mi SW 11.5 mph 18.4 mph N/A   Mostly Cloudy
1:14 AM 43.7 °F 36.6 °F 22.8 °F 44% 29.93 in 10.0 mi SW 15.0 mph 18.4 mph N/A   Overcast
1:34 AM 44.1 °F 37.4 °F 23.0 °F 43% 29.93 in 10.0 mi SW 13.8 mph 19.6 mph N/A   Overcast
1:54 AM 43.9 °F 37.2 °F 23.2 °F 44% 29.94 in 10.0 mi SW 13.8 mph 19.6 mph N/A   Overcast
2:14 AM 43.7 °F 36.9 °F 23.4 °F 45% 29.94 in 10.0 mi SW 13.8 mph 21.9 mph N/A   Overcast
2:35 AM 43.5 °F 37.5 °F 23.9 °F 46% 29.94 in 10.0 mi SW 11.5 mph 18.4 mph N/A   Overcast
2:54 AM 43.7 °F 37.7 °F 24.4 °F 47% 29.94 in 10.0 mi SW 11.5 mph 19.6 mph N/A   Overcast
3:15 AM 43.7 °F 37.3 °F 24.6 °F 47% 29.93 in 10.0 mi SW 12.7 mph 21.9 mph N/A   Overcast
3:34 AM 43.3 °F 37.7 °F 24.8 °F 48% 29.94 in 10.0 mi SW 10.4 mph 16.1 mph N/A   Overcast
3:54 AM 43.3 °F 36.8 °F 25.0 °F 48% 29.94 in 10.0 mi SW 12.7 mph 16.1 mph N/A   Overcast
4:15 AM 43.2 °F 37.4 °F 25.0 °F 49% 29.94 in 10.0 mi SW 10.4 mph 16.1 mph N/A   Overcast
4:34 AM 42.8 °F 37.5 °F 25.0 °F 49% 29.93 in 10.0 mi SW 9.2 mph - N/A   Overcast
4:54 AM 42.8 °F 37.5 °F 25.3 °F 50% 29.94 in 10.0 mi SW 9.2 mph - N/A   Overcast
5:15 AM 42.4 °F 37.0 °F 25.3 °F 51% 29.94 in 10.0 mi SW 9.2 mph - N/A   Overcast
5:34 AM 42.1 °F 36.6 °F 25.3 °F 52% 29.94 in 10.0 mi SSW 9.2 mph - N/A   Mostly Cloudy
5:54 AM 41.5 °F 35.9 °F 25.7 °F 53% 29.95 in 10.0 mi SSW 9.2 mph - N/A   Mostly Cloudy
6:15 AM 41.2 °F 35.0 °F 25.7 °F 54% 29.95 in 10.0 mi SW 10.4 mph - N/A   Mostly Cloudy
6:34 AM 41.4 °F 36.8 °F 26.1 °F 55% 29.95 in 10.0 mi SW 6.9 mph - N/A   Overcast
6:54 AM 42.1 °F 36.1 °F 26.1 °F 53% 29.96 in 10.0 mi SW 10.4 mph - N/A   Mostly Cloudy
7:15 AM 41.9 °F 36.3 °F 26.4 °F 54% 29.96 in 10.0 mi SSW 9.2 mph - N/A   Scattered Clouds
7:34 AM 41.4 °F 35.7 °F 27.1 °F 57% 29.97 in 10.0 mi SW 9.2 mph - N/A   Scattered Clouds
7:54 AM 41.9 °F 36.3 °F 27.0 °F 55% 29.97 in 10.0 mi SW 9.2 mph - N/A   Mostly Cloudy
8:15 AM 41.5 °F 35.9 °F 27.0 °F 56% 29.98 in 10.0 mi SSW 9.2 mph - N/A   Overcast
8:34 AM 42.1 °F 36.1 °F 27.0 °F 55% 29.98 in 10.0 mi SSW 10.4 mph - N/A   Overcast
8:54 AM 42.3 °F 36.3 °F 26.4 °F 54% 29.98 in 10.0 mi SSW 10.4 mph - N/A   Overcast
9:15 AM 42.8 °F 37.0 °F 26.6 °F 53% 29.98 in 10.0 mi SSW 10.4 mph 17.3 mph N/A   Overcast
9:34 AM 43.0 °F 38.2 °F 27.3 °F 54% 29.98 in 10.0 mi SSW 8.1 mph 16.1 mph N/A   Overcast
9:54 AM 43.5 °F 38.3 °F 27.5 °F 53% 29.98 in 10.0 mi SSW 9.2 mph - N/A   Overcast
10:15 AM 44.6 °F 38.8 °F 27.5 °F 51% 29.98 in 10.0 mi SSW 11.5 mph 16.1 mph N/A   Overcast
10:34 AM 45.0 °F 39.3 °F 27.7 °F 51% 29.99 in 10.0 mi SW 11.5 mph - N/A   Overcast
10:54 AM 45.5 °F 39.9 °F 27.9 °F 50% 29.98 in 10.0 mi SW 11.5 mph 17.3 mph N/A   Overcast
11:15 AM 46.9 °F - 28.2 °F 48% 29.98 in 10.0 mi SW 9.2 mph 17.3 mph N/A   Overcast
11:34 AM 48.0 °F - 29.3 °F 48% 29.97 in 10.0 mi WSW 10.4 mph 17.3 mph N/A   Overcast
11:54 AM 49.1 °F - 29.7 °F 47% 29.97 in 10.0 mi WSW 12.7 mph 16.1 mph N/A   Overcast
12:15 PM 50.2 °F - 28.9 °F 44% 29.97 in 10.0 mi SW 11.5 mph - N/A   Overcast
12:34 PM 49.1 °F - 28.8 °F 45% 29.97 in 10.0 mi SW 8.1 mph 17.3 mph N/A   Overcast
12:54 PM 49.1 °F - 28.6 °F 45% 29.96 in 10.0 mi WSW 6.9 mph - N/A   Overcast
1:14 PM 48.6 °F - 29.3 °F 47% 29.96 in 10.0 mi West 8.1 mph - N/A   Overcast
1:34 PM 48.2 °F - 29.8 °F 49% 29.95 in 10.0 mi West 5.8 mph - N/A   Overcast
1:55 PM 48.0 °F - 31.1 °F 52% 29.95 in 10.0 mi WSW 5.8 mph - N/A   Overcast
2:14 PM 48.2 °F - 30.4 °F 50% 29.95 in 10.0 mi West 4.6 mph - N/A   Overcast
2:34 PM 48.2 °F - 30.7 °F 51% 29.95 in 10.0 mi WSW 5.8 mph - N/A   Overcast
2:55 PM 47.3 °F - 32.0 °F 55% 29.95 in 10.0 mi SW 6.9 mph - N/A Rain Light Rain
3:14 PM 45.5 °F 41.3 °F 34.5 °F 65% 29.96 in 5.0 mi WSW 8.1 mph - N/A   Overcast
3:34 PM 45.0 °F 40.6 °F 34.9 °F 68% 29.96 in 10.0 mi SW 8.1 mph - N/A Rain Light Rain
3:55 PM 44.6 °F 40.2 °F 35.2 °F 70% 29.96 in 10.0 mi SSW 8.1 mph - N/A   Overcast
4:14 PM 44.6 °F 41.4 °F 35.2 °F 70% 29.96 in 10.0 mi SSW 5.8 mph - N/A   Overcast
4:34 PM 44.1 °F 41.5 °F 35.8 °F 73% 29.96 in 10.0 mi SSW 4.6 mph - N/A   Overcast
4:55 PM 44.1 °F 40.8 °F 35.2 °F 71% 29.96 in 10.0 mi SSW 5.8 mph - N/A   Overcast
5:14 PM 43.7 °F 40.3 °F 35.6 °F 73% 29.96 in 10.0 mi SSW 5.8 mph - N/A   Overcast
5:35 PM 43.9 °F 41.3 °F 35.4 °F 72% 29.97 in 10.0 mi SW 4.6 mph - N/A   Overcast
5:54 PM 43.7 °F 41.1 °F 35.1 °F 72% 29.97 in 10.0 mi SW 4.6 mph - N/A   Overcast
6:14 PM 44.1 °F 41.5 °F 34.7 °F 70% 29.97 in 10.0 mi SSW 4.6 mph - N/A   Overcast
6:35 PM 44.4 °F 42.9 °F 33.8 °F 66% 29.97 in 10.0 mi SW 3.5 mph - N/A   Overcast
6:54 PM 45.5 °F 42.5 °F 32.0 °F 59% 29.97 in 10.0 mi SSW 5.8 mph - N/A   Overcast
7:14 PM 44.6 °F 40.2 °F 32.0 °F 61% 29.98 in 10.0 mi SSW 8.1 mph - N/A   Overcast
7:35 PM 44.8 °F 41.0 °F 31.8 °F 60% 29.99 in 10.0 mi SW 6.9 mph - N/A   Overcast
7:54 PM 44.4 °F 41.2 °F 31.1 °F 60% 29.99 in 10.0 mi SW 5.8 mph - N/A   Overcast
8:14 PM 41.0 °F 38.0 °F 31.1 °F 68% 30.00 in 10.0 mi SSW 4.6 mph - N/A   Scattered Clouds
8:35 PM 39.9 °F 36.7 °F 30.6 °F 69% 30.00 in 10.0 mi SSW 4.6 mph - N/A   Scattered Clouds
8:54 PM 39.0 °F 35.7 °F 29.5 °F 69% 30.01 in 10.0 mi SSW 4.6 mph - N/A   Scattered Clouds
9:14 PM 38.3 °F 34.8 °F 29.3 °F 70% 30.01 in 10.0 mi SSW 4.6 mph - N/A   Clear
9:35 PM 38.3 °F 34.8 °F 28.4 °F 68% 30.01 in 10.0 mi SSW 4.6 mph - N/A   Clear
9:54 PM 37.2 °F 33.6 °F 28.4 °F 70% 30.01 in 10.0 mi SSW 4.6 mph - N/A   Clear
10:14 PM 36.7 °F 32.9 °F 28.6 °F 72% 30.01 in 10.0 mi SSW 4.6 mph - N/A   Clear
10:35 PM 35.8 °F 31.9 °F 28.6 °F 75% 30.02 in 10.0 mi SSW 4.6 mph - N/A   Clear
10:54 PM 36.0 °F 31.1 °F 28.2 °F 73% 30.02 in 10.0 mi SSW 5.8 mph - N/A   Clear
11:14 PM 36.1 °F 32.3 °F 28.9 °F 75% 30.03 in 10.0 mi SSW 4.6 mph - N/A   Clear
11:35 PM 35.6 °F 29.9 °F 28.6 °F 76% 30.03 in 10.0 mi South 6.9 mph - N/A   Clear
11:54 PM 36.3 °F 29.5 °F 29.3 °F 76% 30.03 in 10.0 mi South 9.2 mph - N/A   Clear